Time;durP1;ratioP1;P1;durP2;ratioP2;P2;SDS_P1;SDS_P2;PMS_P1;PMS_P2;Temp;Humidity;BMP_temperature;BMP_pressure;BME280_temperature;BME280_humidity;BME280_pressure;Samples;Min_cycle;Max_cycle;Signal;HPM_P1;HPM_P2
2021/03/31 00:00:39;;;;;;;3.85;2.22;;;;;;;12.04;46.31;101476.75;5006120;28;20025;-70
2021/03/31 00:03:11;;;;;;;8.43;3.75;;;;;;;12.16;45.81;101474.00;5013304;28;20564;-70
2021/03/31 00:05:37;;;;;;;6.15;2.70;;;;;;;12.25;45.32;101475.78;5013201;28;20045;-69
2021/03/31 00:08:02;;;;;;;6.72;3.10;;;;;;;12.37;44.86;101461.44;5013239;28;20030;-70
2021/03/31 00:10:34;;;;;;;4.85;2.80;;;;;;;12.34;45.78;101467.00;5012628;28;20040;-69
2021/03/31 00:13:00;;;;;;;6.00;2.58;;;;;;;12.27;45.12;101465.88;5009243;28;20549;-70
2021/03/31 00:15:25;;;;;;;5.47;2.85;;;;;;;12.25;45.03;101465.19;5013523;28;20037;-70
2021/03/31 00:17:50;;;;;;;6.57;3.28;;;;;;;12.19;46.14;101463.09;4996036;28;20040;-70
2021/03/31 00:20:17;;;;;;;4.47;2.85;;;;;;;12.05;48.91;101465.16;5013106;28;20034;-70
2021/03/31 00:22:43;;;;;;;6.03;2.85;;;;;;;12.02;46.41;101461.97;5013865;28;20084;-69
2021/03/31 00:25:11;;;;;;;6.10;3.30;;;;;;;12.10;45.62;101457.63;4995762;28;20515;-70
2021/03/31 00:27:37;;;;;;;5.90;3.45;;;;;;;12.27;45.09;101453.44;5013178;28;20517;-70
2021/03/31 00:30:05;;;;;;;5.32;2.67;;;;;;;12.32;44.86;101453.88;5013906;28;20030;-70
2021/03/31 00:32:31;;;;;;;4.45;2.22;;;;;;;12.28;45.17;101451.66;5013666;28;20061;-70
2021/03/31 00:34:56;;;;;;;4.70;3.00;;;;;;;12.02;47.74;101454.84;5007550;28;20053;-69
2021/03/31 00:37:21;;;;;;;4.68;3.00;;;;;;;11.92;47.04;101456.66;5016209;28;20026;-70
2021/03/31 00:39:46;;;;;;;3.55;1.90;;;;;;;11.69;49.07;101453.38;5005773;28;20057;-71
2021/03/31 00:42:12;;;;;;;5.47;3.05;;;;;;;11.65;48.36;101462.56;4995142;28;20498;-70
2021/03/31 00:44:37;;;;;;;4.65;3.20;;;;;;;11.44;48.84;101459.97;5005367;28;20043;-70
2021/03/31 00:47:03;;;;;;;4.20;2.63;;;;;;;11.29;50.93;101463.97;5013181;28;20081;-70
2021/03/31 00:49:28;;;;;;;6.30;3.67;;;;;;;11.07;52.68;101465.84;5007496;28;20034;-69
2021/03/31 00:51:53;;;;;;;4.93;3.45;;;;;;;10.87;52.70;101456.13;5010749;28;20034;-70
2021/03/31 00:54:19;;;;;;;5.43;3.47;;;;;;;10.68;53.63;101456.84;5008627;28;20501;-70
2021/03/31 00:56:45;;;;;;;5.07;3.40;;;;;;;10.46;55.08;101444.59;5012046;28;20054;-69
2021/03/31 00:59:10;;;;;;;5.18;2.63;;;;;;;10.39;54.84;101446.91;4997902;28;20061;-69
2021/03/31 01:01:36;;;;;;;4.22;2.60;;;;;;;10.36;53.37;101447.16;5009693;28;20388;-69
2021/03/31 01:04:01;;;;;;;7.45;3.80;;;;;;;10.22;55.07;101442.97;5010259;28;20038;-71
2021/03/31 01:06:26;;;;;;;4.45;2.60;;;;;;;10.24;54.75;101434.94;5011153;28;20128;-69
2021/03/31 01:08:52;;;;;;;7.28;4.03;;;;;;;10.14;54.31;101437.50;5011279;28;20573;-69
2021/03/31 01:11:29;;;;;;;5.95;3.70;;;;;;;10.06;56.66;101421.41;5011392;28;20162;-70
2021/03/31 01:14:08;;;;;;;5.43;3.20;;;;;;;10.01;55.98;101424.47;5008251;28;20026;-69
2021/03/31 01:16:41;;;;;;;4.25;2.50;;;;;;;9.99;55.32;101416.66;5007436;28;20124;-69
2021/03/31 01:19:19;;;;;;;4.57;3.28;;;;;;;9.91;55.81;101412.97;5004687;28;20036;-69
2021/03/31 01:21:53;;;;;;;4.13;2.20;;;;;;;9.88;56.24;101406.13;4993868;28;20117;-70
2021/03/31 01:24:52;;;;;;;4.78;3.08;;;;;;;9.82;57.92;101411.94;5007393;28;20403;-70
2021/03/31 01:27:36;;;;;;;4.88;3.20;;;;;;;9.72;56.57;101410.97;5011014;28;20030;-69
2021/03/31 01:30:05;;;;;;;5.10;3.15;;;;;;;9.60;58.11;101411.97;4993748;28;20035;-69
2021/03/31 01:32:33;;;;;;;4.53;2.72;;;;;;;9.62;55.98;101407.41;4994035;28;20026;-70
2021/03/31 01:35:10;;;;;;;5.07;3.35;;;;;;;9.57;60.14;101411.25;5005176;28;20053;-69
2021/03/31 01:37:48;;;;;;;4.63;3.33;;;;;;;9.53;56.85;101412.47;5003733;28;20034;-70
2021/03/31 01:40:17;;;;;;;5.28;2.63;;;;;;;9.53;58.02;101408.97;5006405;28;20044;-69
2021/03/31 01:42:50;;;;;;;4.55;2.58;;;;;;;9.51;59.48;101413.53;5007482;28;20038;-70
2021/03/31 01:45:19;;;;;;;5.10;2.80;;;;;;;9.51;57.94;101401.19;4999138;28;20405;-69
2021/03/31 01:47:47;;;;;;;4.57;2.63;;;;;;;9.49;56.49;101407.56;5005165;28;20038;-69
2021/03/31 01:50:14;;;;;;;6.15;3.25;;;;;;;9.45;58.85;101399.03;5000147;28;20030;-70
2021/03/31 01:52:42;;;;;;;3.50;2.40;;;;;;;9.38;57.85;101397.84;5011039;28;20072;-69
2021/03/31 01:55:11;;;;;;;4.40;2.85;;;;;;;9.33;57.42;101400.03;4993304;28;20084;-69
2021/03/31 01:57:37;;;;;;;5.18;2.90;;;;;;;9.25;59.06;101397.16;5000879;28;20238;-70
2021/03/31 02:00:05;;;;;;;6.45;3.72;;;;;;;9.14;59.66;101396.19;5003804;28;20041;-69
2021/03/31 02:02:32;;;;;;;4.90;2.85;;;;;;;9.07;59.69;101389.72;5010222;28;20449;-69
2021/03/31 02:04:58;;;;;;;6.72;3.67;;;;;;;8.99;59.83;101396.59;5009896;28;20121;-69
2021/03/31 02:07:24;;;;;;;6.22;3.60;;;;;;;8.86;62.50;101394.88;5010658;28;20066;-69
2021/03/31 02:09:50;;;;;;;7.35;4.45;;;;;;;8.78;62.02;101394.66;4993490;28;20033;-69
2021/03/31 02:12:19;;;;;;;7.68;4.25;;;;;;;8.65;62.24;101386.00;5010446;28;20091;-69
2021/03/31 02:14:46;;;;;;;6.40;3.92;;;;;;;8.62;63.37;101394.16;5009957;28;20103;-70
2021/03/31 02:17:18;;;;;;;8.43;4.97;;;;;;;8.71;60.45;101394.28;5010532;28;20037;-69
2021/03/31 02:19:44;;;;;;;9.52;4.50;;;;;;;8.69;60.32;101400.63;5008201;28;20505;-70
2021/03/31 02:22:10;;;;;;;7.82;4.85;;;;;;;8.55;64.21;101385.84;4995512;28;20034;-69
2021/03/31 02:24:36;;;;;;;7.00;3.80;;;;;;;8.56;60.82;101384.91;5003389;28;20278;-69
2021/03/31 02:27:05;;;;;;;6.15;3.70;;;;;;;8.63;60.71;101391.41;5009112;28;20038;-69
2021/03/31 02:29:30;;;;;;;5.70;3.40;;;;;;;8.64;62.68;101382.53;4992820;28;20046;-69
2021/03/31 02:31:57;;;;;;;5.63;3.00;;;;;;;8.61;62.57;101385.41;5009976;28;20030;-69
2021/03/31 02:34:25;;;;;;;8.98;5.10;;;;;;;8.37;64.47;101393.34;5002427;28;20042;-69
2021/03/31 02:36:51;;;;;;;8.43;4.70;;;;;;;8.14;65.01;101397.72;5009195;28;20034;-69
2021/03/31 02:39:19;;;;;;;6.60;4.22;;;;;;;8.14;64.53;101384.53;4997942;28;20387;-69
2021/03/31 02:41:49;;;;;;;8.52;5.00;;;;;;;8.12;65.35;101388.25;4999097;28;20053;-69
2021/03/31 02:44:17;;;;;;;8.23;4.88;;;;;;;8.05;64.83;101386.06;4999922;28;20037;-70
2021/03/31 02:46:45;;;;;;;7.97;4.45;;;;;;;8.00;64.97;101384.72;5009565;28;20034;-70
2021/03/31 02:49:12;;;;;;;7.40;4.63;;;;;;;7.88;64.41;101381.22;5010402;28;20042;-70
2021/03/31 02:51:38;;;;;;;8.07;4.30;;;;;;;7.84;64.94;101377.97;4995034;28;21150;-70
2021/03/31 02:54:09;;;;;;;6.53;4.07;;;;;;;7.84;66.19;101372.72;5005931;28;20634;-69
2021/03/31 02:56:38;;;;;;;7.07;4.17;;;;;;;7.78;64.56;101373.16;5010105;28;20589;-69
2021/03/31 02:59:04;;;;;;;6.97;3.83;;;;;;;7.76;65.05;101361.88;5009425;28;20837;-70
2021/03/31 03:01:29;;;;;;;8.02;4.40;;;;;;;7.73;65.61;101359.50;4993255;28;20124;-69
2021/03/31 03:03:58;;;;;;;5.97;3.97;;;;;;;7.65;65.40;101367.09;4996868;28;20052;-69
2021/03/31 03:06:25;;;;;;;6.80;4.57;;;;;;;7.55;67.24;101356.38;4992037;28;20041;-70
2021/03/31 03:08:56;;;;;;;8.57;4.80;;;;;;;7.45;66.40;101361.50;5009714;28;20035;-70
2021/03/31 03:11:22;;;;;;;9.85;4.82;;;;;;;7.38;68.56;101362.03;5010611;28;20057;-70
2021/03/31 03:13:49;;;;;;;7.60;3.90;;;;;;;7.36;66.77;101361.31;5012240;28;20375;-69
2021/03/31 03:16:15;;;;;;;7.88;4.32;;;;;;;7.38;68.57;101362.03;5008650;28;20040;-70
2021/03/31 03:18:41;;;;;;;6.35;4.07;;;;;;;7.37;67.61;101357.75;5014282;28;20073;-69
2021/03/31 03:21:06;;;;;;;7.07;4.07;;;;;;;7.48;64.79;101349.91;5013992;28;20165;-69
2021/03/31 03:23:34;;;;;;;4.72;3.30;;;;;;;7.54;68.73;101354.72;5013095;28;20069;-70
2021/03/31 03:26:00;;;;;;;6.45;4.22;;;;;;;7.49;67.91;101356.03;5012748;28;20107;-69
2021/03/31 03:28:27;;;;;;;5.68;3.70;;;;;;;7.52;69.15;101353.16;5005110;28;20128;-70
2021/03/31 03:30:54;;;;;;;6.93;4.65;;;;;;;7.59;65.95;101351.75;5011799;28;20124;-70
2021/03/31 03:33:20;;;;;;;5.50;3.55;;;;;;;7.53;67.81;101353.06;5013329;28;20041;-69
2021/03/31 03:35:46;;;;;;;8.35;5.10;;;;;;;7.35;68.17;101363.09;4995227;28;20030;-70
2021/03/31 03:38:13;;;;;;;8.07;5.07;;;;;;;7.18;67.56;101363.50;5014460;28;20033;-70
2021/03/31 03:40:39;;;;;;;7.75;4.60;;;;;;;7.07;71.07;101366.03;5011679;28;20043;-69
2021/03/31 03:43:06;;;;;;;5.85;4.25;;;;;;;7.20;66.48;101361.59;5018491;28;20556;-69
2021/03/31 03:45:32;;;;;;;9.02;5.13;;;;;;;7.30;65.59;101359.97;5016642;28;20030;-69
2021/03/31 03:47:58;;;;;;;5.47;3.85;;;;;;;7.25;68.05;101364.72;5005335;28;20026;-69
2021/03/31 03:50:24;;;;;;;5.63;4.05;;;;;;;7.25;70.02;101362.09;5012461;28;20125;-69
2021/03/31 03:52:50;;;;;;;6.03;2.85;;;;;;;7.35;65.90;101359.66;4995940;28;20467;-69
2021/03/31 03:55:19;;;;;;;5.88;3.28;;;;;;;7.35;65.27;101357.84;5009233;28;20057;-69
2021/03/31 03:57:44;;;;;;;4.93;3.08;;;;;;;7.37;64.70;101361.22;5011423;28;20042;-70
2021/03/31 04:00:17;;;;;;;6.30;3.85;;;;;;;7.36;65.23;101359.50;5005067;28;20507;-69
2021/03/31 04:02:43;;;;;;;7.95;4.68;;;;;;;7.36;65.11;101350.78;4992276;28;20092;-69
2021/03/31 04:05:09;;;;;;;4.93;3.42;;;;;;;7.31;67.40;101356.38;5009653;28;20457;-69
2021/03/31 04:07:35;;;;;;;6.32;4.65;;;;;;;7.13;67.03;101355.91;5012736;28;20038;-69
2021/03/31 04:10:01;;;;;;;5.78;4.13;;;;;;;7.05;67.17;101357.41;5008547;28;20415;-70
2021/03/31 04:12:27;;;;;;;6.65;3.90;;;;;;;7.05;70.83;101355.59;4993966;28;20038;-70
2021/03/31 04:14:53;;;;;;;7.03;4.40;;;;;;;7.01;69.95;101355.00;4979405;28;20034;-69
2021/03/31 04:17:19;;;;;;;5.35;3.50;;;;;;;7.08;69.47;101354.53;5012803;28;20056;-70
2021/03/31 04:19:48;;;;;;;6.40;4.03;;;;;;;7.10;70.39;101350.03;5013130;28;20030;-70
2021/03/31 04:22:13;;;;;;;5.93;3.90;;;;;;;7.20;66.48;101351.91;4994316;28;20038;-70
2021/03/31 04:24:39;;;;;;;4.68;2.90;;;;;;;7.19;69.51;101342.31;5006851;28;20038;-69
2021/03/31 04:27:06;;;;;;;4.82;3.30;;;;;;;7.21;67.25;101343.03;5012517;28;20306;-69
2021/03/31 04:29:33;;;;;;;6.47;3.33;;;;;;;7.19;69.55;101347.56;5008833;28;20159;-69
2021/03/31 04:31:59;;;;;;;6.05;3.90;;;;;;;7.14;70.39;101344.44;5000950;28;20663;-69
2021/03/31 04:34:25;;;;;;;5.63;3.67;;;;;;;7.19;65.98;101341.47;5012466;28;20030;-70
2021/03/31 04:36:50;;;;;;;6.43;4.10;;;;;;;7.14;70.56;101335.72;5010118;28;20088;-69
2021/03/31 04:39:15;;;;;;;6.93;3.85;;;;;;;7.17;66.76;101349.47;5009446;28;20030;-69
2021/03/31 04:41:41;;;;;;;5.68;3.78;;;;;;;7.14;67.96;101346.22;4995647;28;20046;-70
2021/03/31 04:44:07;;;;;;;6.32;4.47;;;;;;;7.09;68.99;101337.84;5007070;28;20036;-69
2021/03/31 04:46:32;;;;;;;8.23;4.97;;;;;;;6.90;67.95;101344.38;5000792;28;20045;-70
2021/03/31 04:48:57;;;;;;;7.07;4.53;;;;;;;6.76;69.61;101347.16;4997625;28;20088;-69
2021/03/31 04:51:23;;;;;;;6.40;4.95;;;;;;;6.59;71.41;101350.94;5011499;28;20450;-70
2021/03/31 04:53:48;;;;;;;7.40;4.80;;;;;;;6.44;70.87;101357.25;4991624;28;20121;-69
2021/03/31 04:56:13;;;;;;;6.25;3.88;;;;;;;6.44;71.17;101355.47;5003130;28;20080;-69
2021/03/31 04:58:39;;;;;;;6.75;4.30;;;;;;;6.59;73.40;101346.53;5012914;28;20495;-70
2021/03/31 05:01:04;;;;;;;7.38;4.32;;;;;;;6.69;73.34;101356.41;5012969;28;20030;-69
2021/03/31 05:03:30;;;;;;;6.65;4.13;;;;;;;6.70;72.82;101358.94;4994487;28;20053;-69
2021/03/31 05:05:55;;;;;;;10.10;5.82;;;;;;;6.81;68.97;101360.81;5011390;28;20034;-70
2021/03/31 05:08:21;;;;;;;9.13;6.22;;;;;;;6.80;68.77;101359.97;4993317;28;20057;-70
2021/03/31 05:10:46;;;;;;;8.35;5.15;;;;;;;6.79;69.39;101357.44;5011214;28;20499;-69
2021/03/31 05:13:12;;;;;;;6.15;4.28;;;;;;;6.79;69.65;101358.31;5009434;28;20029;-69
2021/03/31 05:15:38;;;;;;;6.78;4.32;;;;;;;6.81;68.74;101355.53;5004980;28;20828;-69
2021/03/31 05:18:03;;;;;;;5.22;3.60;;;;;;;6.85;68.47;101359.66;4994480;28;20029;-69
2021/03/31 05:20:28;;;;;;;6.05;3.90;;;;;;;6.84;69.84;101355.34;5011991;28;20045;-69
2021/03/31 05:22:54;;;;;;;5.68;4.40;;;;;;;6.76;69.79;101363.75;5010641;28;20069;-69
2021/03/31 05:25:19;;;;;;;9.32;5.00;;;;;;;6.62;70.72;101361.22;5011872;28;20048;-70
2021/03/31 05:27:45;;;;;;;7.57;4.90;;;;;;;6.50;72.44;101362.06;5012169;28;20033;-69
2021/03/31 05:30:11;;;;;;;6.22;4.28;;;;;;;6.48;72.53;101364.78;5011710;28;20049;-70
2021/03/31 05:32:37;;;;;;;7.10;4.80;;;;;;;6.58;74.00;101365.88;5008302;28;20038;-69
2021/03/31 05:35:05;;;;;;;7.43;3.65;;;;;;;6.71;70.06;101360.59;5011359;28;20084;-69
2021/03/31 05:37:30;;;;;;;7.07;4.20;;;;;;;6.79;71.61;101363.56;4996871;28;20054;-69
2021/03/31 05:39:55;;;;;;;8.18;5.10;;;;;;;6.73;71.16;101365.75;5011421;28;20037;-69
2021/03/31 05:42:21;;;;;;;7.97;4.57;;;;;;;6.63;71.75;101362.09;5007971;28;20038;-69
2021/03/31 05:44:47;;;;;;;7.20;4.32;;;;;;;6.71;71.62;101365.03;4991376;28;20042;-70
2021/03/31 05:47:35;;;;;;;7.47;5.28;;;;;;;6.66;71.45;101364.50;5012215;28;20132;-70
2021/03/31 05:50:02;;;;;;;7.90;5.20;;;;;;;6.51;72.81;101369.88;4995844;28;20361;-70
2021/03/31 05:52:28;;;;;;;8.43;5.10;;;;;;;6.46;74.52;101369.34;4995270;28;20045;-69
2021/03/31 05:54:54;;;;;;;9.55;4.93;;;;;;;6.46;72.69;101371.97;4994520;28;20037;-69
2021/03/31 05:57:20;;;;;;;9.80;4.85;;;;;;;6.51;74.76;101375.13;5011995;28;20029;-70
2021/03/31 05:59:46;;;;;;;5.97;3.70;;;;;;;6.71;71.94;101370.28;5008217;28;20525;-69
2021/03/31 06:02:14;;;;;;;6.85;4.78;;;;;;;6.90;71.74;101375.09;5008396;28;20075;-69
2021/03/31 06:04:44;;;;;;;7.50;4.78;;;;;;;7.14;70.56;101372.53;5010402;28;20485;-69
2021/03/31 06:07:09;;;;;;;7.15;4.25;;;;;;;7.76;70.25;101367.16;5008606;28;20034;-69
2021/03/31 06:10:07;;;;;;;6.40;3.90;;;;;;;8.84;68.58;101366.94;4993802;28;20034;-70
2021/03/31 06:12:34;;;;;;;6.72;3.85;;;;;;;9.76;66.47;101362.22;4991745;28;20042;-69
2021/03/31 06:15:32;;;;;;;8.75;4.47;;;;;;;10.62;61.57;101368.28;5005232;28;20060;-70
2021/03/31 06:18:07;;;;;;;6.40;3.33;;;;;;;11.34;63.82;101369.94;4991094;28;20031;-69
2021/03/31 06:20:44;;;;;;;5.20;3.15;;;;;;;12.12;61.38;101367.38;5009552;28;20038;-69
2021/03/31 06:25:54;;;;;;;7.07;3.70;;;;;;;12.55;58.41;101371.31;5008557;28;20088;-70
2021/03/31 06:28:29;;;;;;;4.45;3.00;;;;;;;12.94;56.77;101372.03;5010344;28;20037;-70
2021/03/31 06:31:11;;;;;;;8.75;3.78;;;;;;;13.24;56.31;101374.53;5004328;28;20465;-70
2021/03/31 06:33:38;;;;;;;7.22;3.95;;;;;;;13.94;57.00;101374.78;5006873;28;20049;-70
2021/03/31 06:36:06;;;;;;;8.02;4.32;;;;;;;14.55;55.51;101373.09;4989625;28;20499;-71
2021/03/31 06:38:33;;;;;;;7.43;4.55;;;;;;;15.14;52.64;101367.91;5009885;28;20032;-70
2021/03/31 06:41:12;;;;;;;7.38;4.97;;;;;;;15.68;51.25;101379.03;5005749;28;20038;-70
2021/03/31 06:43:47;;;;;;;5.90;3.60;;;;;;;16.20;50.99;101368.06;4990266;28;20038;-70
2021/03/31 06:46:21;;;;;;;6.68;4.40;;;;;;;16.78;48.34;101368.81;5003562;28;20041;-70
2021/03/31 06:48:49;;;;;;;10.52;4.95;;;;;;;16.93;42.54;101366.28;4993873;28;20073;-70
2021/03/31 06:51:25;;;;;;;8.02;4.53;;;;;;;17.30;42.76;101372.78;5003959;28;20092;-70
2021/03/31 06:53:50;;;;;;;8.73;4.63;;;;;;;17.47;42.68;101360.16;5002789;28;20046;-70
2021/03/31 06:56:30;;;;;;;8.75;4.32;;;;;;;17.79;41.28;101367.13;5002185;28;20042;-70
2021/03/31 06:58:58;;;;;;;9.20;5.85;;;;;;;18.33;44.06;101374.22;5011019;28;20372;-70
2021/03/31 07:01:32;;;;;;;7.25;4.00;;;;;;;18.69;43.92;101366.34;5003012;28;20125;-70
2021/03/31 07:04:03;;;;;;;9.38;5.25;;;;;;;19.01;40.87;101361.63;5004396;28;20038;-70
2021/03/31 07:06:28;;;;;;;6.88;4.38;;;;;;;19.33;40.51;101364.88;5002293;28;20111;-70
2021/03/31 07:08:54;;;;;;;6.88;4.20;;;;;;;19.73;38.38;101372.41;5010984;28;20058;-70
2021/03/31 07:11:41;;;;;;;4.95;3.33;;;;;;;20.01;36.08;101368.91;5011238;28;20029;-70
2021/03/31 07:14:09;;;;;;;7.05;3.40;;;;;;;20.36;36.14;101364.44;5002835;28;20046;-71
2021/03/31 07:16:36;;;;;;;10.23;4.90;;;;;;;20.97;36.03;101366.50;4994230;28;20038;-70
2021/03/31 07:19:02;;;;;;;9.23;4.80;;;;;;;20.63;33.81;101366.50;4991523;28;20058;-70
2021/03/31 07:21:29;;;;;;;8.18;4.15;;;;;;;20.60;38.16;101366.91;4989471;28;20061;-70
2021/03/31 07:23:55;;;;;;;7.70;4.72;;;;;;;21.24;36.79;101374.66;4990802;28;20169;-70
2021/03/31 07:26:21;;;;;;;10.35;6.60;;;;;;;21.68;33.36;101373.34;4997144;28;20084;-70
2021/03/31 07:28:49;;;;;;;8.88;5.55;;;;;;;21.43;34.04;101367.72;5010091;28;20034;-70
2021/03/31 07:31:21;;;;;;;7.80;5.13;;;;;;;21.80;33.91;101374.41;5010200;28;20030;-70
2021/03/31 07:34:00;;;;;;;7.63;5.53;;;;;;;22.16;33.14;101386.63;5005638;28;20398;-70
2021/03/31 07:36:26;;;;;;;9.77;6.03;;;;;;;22.32;32.41;101380.03;5008440;28;20057;-70
2021/03/31 07:38:53;;;;;;;9.85;5.20;;;;;;;22.10;30.97;101371.31;5000298;28;20022;-70
2021/03/31 07:41:20;;;;;;;9.18;5.30;;;;;;;21.52;34.17;101374.53;4990692;28;20031;-70
2021/03/31 07:43:46;;;;;;;9.90;5.30;;;;;;;21.87;30.74;101378.97;5006191;28;20132;-70
2021/03/31 07:46:23;;;;;;;10.55;5.90;;;;;;;22.53;30.13;101381.66;5000915;28;20037;-70
2021/03/31 07:48:49;;;;;;;11.43;6.03;;;;;;;22.11;30.49;101388.31;5008662;28;20046;-70
2021/03/31 07:51:22;;;;;;;8.57;5.18;;;;;;;22.85;33.22;101389.88;5010097;28;20352;-70
2021/03/31 07:53:49;;;;;;;8.57;5.28;;;;;;;23.00;32.16;101389.66;5007339;28;20190;-70
2021/03/31 07:56:25;;;;;;;10.32;6.30;;;;;;;23.19;29.41;101391.47;5004353;28;20037;-70
2021/03/31 07:59:16;;;;;;;11.70;6.28;;;;;;;23.91;28.96;101385.88;5001141;28;20541;-70
2021/03/31 08:01:43;;;;;;;12.03;7.47;;;;;;;24.34;28.08;101390.50;4993797;28;20042;-70
2021/03/31 08:04:10;;;;;;;12.73;7.68;;;;;;;24.57;27.70;101385.31;5010439;28;20042;-70
2021/03/31 08:06:37;;;;;;;11.43;7.03;;;;;;;24.73;27.33;101378.47;5002926;28;20049;-70
2021/03/31 08:09:04;;;;;;;11.70;7.15;;;;;;;25.01;27.32;101380.66;4993288;28;20038;-70
2021/03/31 08:11:38;;;;;;;11.60;8.15;;;;;;;25.45;25.77;101385.13;4996369;28;20542;-70
2021/03/31 08:14:05;;;;;;;11.15;8.00;;;;;;;24.48;27.13;101383.97;5011848;28;20124;-70
2021/03/31 08:16:35;;;;;;;11.77;8.45;;;;;;;25.14;26.17;101387.78;5003346;28;20031;-70
2021/03/31 08:19:22;;;;;;;12.45;8.57;;;;;;;25.27;25.72;101381.41;4993446;28;20466;-70
2021/03/31 08:21:49;;;;;;;12.65;8.65;;;;;;;25.33;26.18;101385.88;5005781;28;20569;-70
2021/03/31 08:24:17;;;;;;;13.88;9.38;;;;;;;25.62;25.39;101373.41;5012042;28;20117;-70
2021/03/31 08:26:45;;;;;;;8.50;6.05;;;;;;;25.32;26.93;101380.72;4994672;28;20057;-70
2021/03/31 08:29:10;;;;;;;11.05;7.05;;;;;;;25.85;25.17;101382.66;4994818;28;20045;-70
2021/03/31 08:31:39;;;;;;;11.52;7.65;;;;;;;26.12;25.87;101377.63;5002222;28;20038;-70
2021/03/31 08:34:06;;;;;;;9.95;6.90;;;;;;;26.66;25.47;101377.53;5010621;28;20030;-70
2021/03/31 08:36:32;;;;;;;11.68;8.15;;;;;;;27.15;24.29;101375.31;5004490;28;20113;-70
2021/03/31 08:38:59;;;;;;;12.70;8.25;;;;;;;27.09;23.64;101379.78;4992878;28;20034;-70
2021/03/31 08:41:27;;;;;;;13.18;9.18;;;;;;;26.76;23.54;101374.22;5004124;28;20041;-70
2021/03/31 08:44:28;;;;;;;13.70;9.05;;;;;;;26.62;23.44;101369.03;5000595;28;20045;-71
2021/03/31 08:46:54;;;;;;;9.52;6.88;;;;;;;26.76;24.91;101368.78;5000704;28;20030;-70
2021/03/31 08:49:24;;;;;;;10.38;6.85;;;;;;;26.86;24.09;101369.84;4991020;28;20452;-70
2021/03/31 08:51:52;;;;;;;15.65;10.40;;;;;;;26.84;24.08;101362.97;5012092;28;20431;-70
2021/03/31 08:54:18;;;;;;;12.68;9.18;;;;;;;27.53;22.74;101355.69;4990859;28;20046;-71
2021/03/31 08:56:48;;;;;;;15.05;9.48;;;;;;;28.01;20.66;101358.94;4992233;28;20237;-71
2021/03/31 08:59:14;;;;;;;10.82;7.38;;;;;;;28.22;22.19;101351.91;4994090;28;20122;-70
2021/03/31 09:01:40;;;;;;;12.02;6.78;;;;;;;27.89;23.86;101355.50;4992172;28;20030;-71
2021/03/31 09:04:20;;;;;;;14.18;7.75;;;;;;;29.22;21.81;101351.84;4993285;28;20034;-70
2021/03/31 09:06:45;;;;;;;11.30;7.90;;;;;;;28.94;21.84;101353.72;4991969;28;20062;-71
2021/03/31 09:09:12;;;;;;;17.33;10.80;;;;;;;29.78;19.97;101349.69;5000877;28;20105;-71
2021/03/31 09:11:37;;;;;;;12.95;9.23;;;;;;;29.04;20.62;101349.47;4992166;28;20079;-70
2021/03/31 09:14:20;;;;;;;16.17;10.10;;;;;;;29.30;20.23;101343.22;5004338;28;20499;-70
2021/03/31 09:17:04;;;;;;;17.13;10.82;;;;;;;28.83;20.45;101337.50;4991791;28;20376;-70
2021/03/31 09:19:33;;;;;;;11.90;8.60;;;;;;;28.38;21.47;101337.44;4999025;28;20050;-70
2021/03/31 09:22:06;;;;;;;12.70;8.43;;;;;;;28.83;20.92;101337.50;4993276;28;20034;-71
2021/03/31 09:24:32;;;;;;;13.95;8.65;;;;;;;29.15;20.52;101324.84;4991593;28;20058;-70
2021/03/31 09:26:59;;;;;;;12.55;8.98;;;;;;;29.39;19.95;101321.75;5005049;28;20044;-70
2021/03/31 09:29:25;;;;;;;14.77;9.68;;;;;;;29.39;20.17;101321.75;5011600;28;20041;-72
2021/03/31 09:31:51;;;;;;;12.55;8.60;;;;;;;29.37;20.53;101316.59;4999613;28;20045;-71
2021/03/31 09:34:17;;;;;;;13.48;9.43;;;;;;;27.66;21.94;101315.66;4996301;28;20626;-70
2021/03/31 09:37:05;;;;;;;15.18;9.68;;;;;;;27.60;22.26;101313.91;5000695;28;20120;-71
2021/03/31 09:39:43;;;;;;;12.20;7.93;;;;;;;26.21;24.80;101313.88;4995307;28;20369;-71
2021/03/31 09:42:14;;;;;;;15.70;8.60;;;;;;;26.93;23.03;101309.97;4991158;28;20036;-71
2021/03/31 09:44:39;;;;;;;;;;;;;;;26.92;23.85;101308.34;4995017;28;20039;-71
2021/03/31 09:47:05;;;;;;;13.23;8.40;;;;;;;26.07;25.05;101309.75;4993193;28;20028;-70
2021/03/31 09:49:30;;;;;;;13.90;8.55;;;;;;;26.34;24.88;101298.41;5001909;28;20312;-71
2021/03/31 09:51:56;;;;;;;12.57;7.90;;;;;;;26.17;24.44;101296.47;4991252;28;20403;-73
2021/03/31 09:54:25;;;;;;;15.02;8.57;;;;;;;25.99;24.18;101296.56;5010159;28;20079;-72
2021/03/31 09:56:51;;;;;;;11.95;7.68;;;;;;;25.46;24.59;101290.13;5010046;28;20033;-72
2021/03/31 09:59:17;;;;;;;14.77;9.07;;;;;;;25.25;24.83;101288.78;4989628;28;20031;-72
2021/03/31 10:01:42;;;;;;;13.50;7.65;;;;;;;24.56;25.63;101288.19;5001265;28;20053;-72
2021/03/31 10:04:08;;;;;;;12.18;7.20;;;;;;;23.86;28.86;101281.19;5009099;28;20353;-72
2021/03/31 10:06:33;;;;;;;12.20;7.25;;;;;;;24.47;26.28;101281.44;4984815;28;20096;-72
2021/03/31 10:08:59;;;;;;;13.68;6.80;;;;;;;24.70;26.52;101278.88;5006838;28;20034;-72
2021/03/31 10:11:33;;;;;;;15.98;9.15;;;;;;;25.19;25.10;101278.84;5006549;28;20125;-72
2021/03/31 10:14:01;;;;;;;16.92;9.60;;;;;;;24.72;25.58;101274.06;4988576;28;20537;-71
2021/03/31 10:16:37;;;;;;;15.15;9.27;;;;;;;24.44;25.72;101276.47;5003570;28;20038;-72
2021/03/31 10:19:05;;;;;;;16.80;8.88;;;;;;;24.47;25.39;101266.03;5003533;28;20034;-72
2021/03/31 10:21:36;;;;;;;13.07;8.68;;;;;;;24.26;26.28;101263.75;5008628;28;20034;-72
2021/03/31 10:24:03;;;;;;;15.05;8.27;;;;;;;24.07;26.38;101261.03;5000074;28;20030;-72
2021/03/31 10:26:38;;;;;;;14.10;8.05;;;;;;;23.82;27.66;101254.84;4991566;28;20573;-72
2021/03/31 10:29:08;;;;;;;15.70;9.82;;;;;;;24.28;26.01;101248.97;5008776;28;20379;-72
2021/03/31 10:31:35;;;;;;;14.33;8.50;;;;;;;24.02;26.27;101243.84;4990497;28;20042;-72
2021/03/31 10:34:01;;;;;;;13.32;8.57;;;;;;;23.82;26.32;101241.34;5006792;28;20045;-71
2021/03/31 10:36:52;;;;;;;14.10;8.27;;;;;;;23.49;27.13;101254.03;4990634;28;20109;-72
2021/03/31 10:50:20;;;;;;;16.60;9.00;;;;;;;23.59;27.47;101226.53;5000080;28;20076;-71
2021/03/31 10:52:51;;;;;;;17.35;9.02;;;;;;;23.48;27.76;101229.97;5006304;28;20066;-72
2021/03/31 10:55:16;;;;;;;17.17;9.25;;;;;;;23.51;27.20;101238.44;4996274;28;20121;-72
2021/03/31 10:57:42;;;;;;;13.80;7.20;;;;;;;23.20;29.02;101223.13;4991363;28;20254;-71
2021/03/31 11:00:07;;;;;;;16.10;7.68;;;;;;;23.17;28.65;101220.88;4974742;28;20041;-72
2021/03/31 11:02:33;;;;;;;12.80;7.00;;;;;;;23.03;29.46;101222.81;5000110;28;20581;-72
2021/03/31 11:04:58;;;;;;;21.08;9.90;;;;;;;23.44;27.53;101229.59;4989717;28;20035;-72
2021/03/31 11:07:23;;;;;;;15.15;9.10;;;;;;;23.58;27.07;101224.09;5008568;28;20065;-72
2021/03/31 11:09:49;;;;;;;15.60;8.00;;;;;;;23.43;27.72;101227.94;5008761;28;20133;-71
2021/03/31 11:12:15;;;;;;;12.90;7.30;;;;;;;23.46;28.12;101215.88;5004833;28;20066;-71
2021/03/31 11:14:41;;;;;;;14.63;8.38;;;;;;;23.35;28.09;101224.69;5005375;28;20113;-71
2021/03/31 11:27:42;;;;;;;15.85;7.20;;;;;;;23.17;28.88;101193.88;4998102;28;20049;-72
2021/03/31 11:30:10;;;;;;;16.67;8.45;;;;;;;22.97;29.71;101191.28;4988175;28;20117;-72
2021/03/31 11:32:36;;;;;;;14.75;8.50;;;;;;;23.31;28.31;101195.44;4996379;28;20384;-72
2021/03/31 11:35:04;;;;;;;15.50;8.68;;;;;;;23.34;28.81;101190.66;5011853;28;20084;-72
2021/03/31 11:37:29;;;;;;;14.32;6.75;;;;;;;23.37;28.93;101191.03;5001109;28;20034;-72
2021/03/31 11:39:54;;;;;;;16.58;7.95;;;;;;;23.62;28.50;101190.19;4993787;28;20048;-71
2021/03/31 11:42:19;;;;;;;13.23;8.48;;;;;;;23.70;27.94;101195.31;4991631;28;20521;-72
2021/03/31 11:44:45;;;;;;;15.30;7.50;;;;;;;23.77;27.94;101184.47;4993456;28;20039;-72
2021/03/31 11:47:10;;;;;;;13.95;7.38;;;;;;;23.83;28.23;101176.28;5003010;28;20113;-72
2021/03/31 11:49:36;;;;;;;11.75;6.80;;;;;;;23.78;27.97;101169.91;5012950;28;20125;-72
2021/03/31 11:52:01;;;;;;;13.55;7.15;;;;;;;23.83;28.12;101165.47;5012451;28;20030;-72
2021/03/31 11:54:26;;;;;;;18.63;8.73;;;;;;;23.72;28.15;101163.50;5012468;28;20041;-72
2021/03/31 11:56:52;;;;;;;17.95;8.07;;;;;;;23.67;29.18;101149.84;5000705;28;20109;-72